Time;durP1;ratioP1;P1;durP2;ratioP2;P2;SDS_P1;SDS_P2;PMS_P1;PMS_P2;Temp;Humidity;BMP_temperature;BMP_pressure;BME280_temperature;BME280_humidity;BME280_pressure;Samples;Min_cycle;Max_cycle;Signal;HPM_P1;HPM_P2
2023/12/31 00:03:32;;;;;;;;;;;;;;;13.31;74.84;100533.66;10371765;28;97264;-83
2023/12/31 00:08:39;;;;;;;;;;;;;;;13.21;76.04;100534.97;10371433;28;96696;-83
2023/12/31 00:13:44;;;;;;;;;;;;;;;13.28;75.09;100526.72;10371005;28;96971;-83
2023/12/31 00:18:50;;;;;;;;;;;;;;;13.31;75.42;100521.28;10371050;28;96941;-83
2023/12/31 00:23:57;;;;;;;;;;;;;;;13.31;76.50;100520.44;10370786;28;96900;-83
2023/12/31 00:29:01;;;;;;;;;;;;;;;13.38;76.14;100503.38;10370741;28;97224;-82
2023/12/31 00:34:05;;;;;;;;;;;;;;;13.42;76.17;100495.22;10370932;28;97297;-83
2023/12/31 00:39:10;;;;;;;;;;;;;;;13.42;76.71;100499.63;10371627;28;97114;-83
2023/12/31 00:44:13;;;;;;;;;;;;;;;13.47;76.77;100500.25;10376673;28;97232;-82
2023/12/31 00:49:16;;;;;;;;;;;;;;;13.56;76.68;100495.41;10377439;28;96980;-83
2023/12/31 00:54:20;;;;;;;;;;;;;;;13.50;77.48;100474.53;10377352;28;97105;-81
2023/12/31 00:59:23;;;;;;;;;;;;;;;13.53;77.67;100469.13;10377248;28;96637;-83
2023/12/31 01:04:27;;;;;;;;;;;;;;;13.53;77.75;100469.13;10376949;28;97558;-83
2023/12/31 01:09:32;;;;;;;;;;;;;;;13.53;78.73;100463.84;10376573;28;96664;-83
2023/12/31 01:14:35;;;;;;;;;;;;;;;13.48;79.61;100457.88;10376513;28;96978;-81
2023/12/31 01:19:39;;;;;;;;;;;;;;;13.42;80.73;100466.13;10375970;28;96794;-83
2023/12/31 01:24:43;;;;;;;;;;;;;;;13.39;81.36;100442.50;10335221;28;96989;-82
2023/12/31 01:29:46;;;;;;;;;;;;;;;13.41;81.49;100435.34;10334574;28;96836;-83
2023/12/31 01:34:49;;;;;;;;;;;;;;;13.45;81.29;100436.03;10335525;28;96787;-83
2023/12/31 01:39:54;;;;;;;;;;;;;;;13.43;81.92;100436.09;10375981;28;97306;-83
2023/12/31 01:44:59;;;;;;;;;;;;;;;13.34;83.87;100441.84;10375968;28;96707;-84
2023/12/31 01:50:03;;;;;;;;;;;;;;;13.27;84.88;100440.44;10374585;28;96699;-85
2023/12/31 01:55:10;;;;;;;;;;;;;;;13.37;84.15;100417.91;10374662;28;96871;-86
2023/12/31 02:00:20;;;;;;;;;;;;;;;13.44;83.26;100421.97;10375216;28;96796;-85
2023/12/31 02:05:25;;;;;;;;;;;;;;;13.55;82.40;100421.47;10374771;28;96717;-84
2023/12/31 02:10:32;;;;;;;;;;;;;;;13.57;82.28;100422.25;10376279;28;97003;-85
2023/12/31 02:15:40;;;;;;;;;;;;;;;13.56;83.04;100407.28;10374774;28;97379;-85
2023/12/31 02:20:44;;;;;;;;;;;;;;;13.46;84.73;100420.13;10374414;28;96961;-86
2023/12/31 02:25:52;;;;;;;;;;;;;;;13.45;85.26;100422.81;10372836;28;96903;-87
2023/12/31 02:31:03;;;;;;;;;;;;;;;13.44;86.41;100431.69;10375331;28;97341;-83
2023/12/31 02:36:07;;;;;;;;;;;;;;;13.29;88.63;100441.19;10373917;28;96809;-85
2023/12/31 02:41:11;;;;;;;;;;;;;;;13.23;90.19;100456.50;10374102;28;97125;-84
2023/12/31 02:46:19;;;;;;;;;;;;;;;13.19;90.72;100473.44;10373434;28;97423;-85
2023/12/31 02:51:24;;;;;;;;;;;;;;;13.10;91.93;100521.41;10373740;28;96772;-84
2023/12/31 02:56:28;;;;;;;;;;;;;;;13.05;91.29;100529.53;10373383;28;97404;-84
2023/12/31 03:01:38;;;;;;;;;;;;;;;12.76;91.81;100532.63;10373507;28;97356;-86
2023/12/31 03:06:51;;;;;;;;;;;;;;;12.65;90.80;100548.09;10378214;28;96740;-92
2023/12/31 03:11:55;;;;;;;;;;;;;;;12.53;90.93;100567.06;10377448;28;97074;-86
2023/12/31 03:17:03;;;;;;;;;;;;;;;12.40;91.38;100568.50;10371798;28;96738;-88
2023/12/31 03:22:14;;;;;;;;;;;;;;;12.38;91.24;100578.25;10350874;28;96828;-90
2023/12/31 03:27:36;;;;;;;;;;;;;;;12.28;91.14;100583.06;10338019;28;96883;-86
2023/12/31 03:32:51;;;;;;;;;;;;;;;12.21;91.63;100580.72;10331252;28;96980;-86
2023/12/31 03:38:06;;;;;;;;;;;;;;;12.32;91.17;100582.00;10368123;28;97029;-86
2023/12/31 03:43:10;;;;;;;;;;;;;;;12.38;91.23;100586.16;10371967;28;96832;-88
2023/12/31 03:48:23;;;;;;;;;;;;;;;12.39;91.07;100582.63;10371920;28;97249;-86
2023/12/31 03:53:33;;;;;;;;;;;;;;;12.34;91.34;100580.16;10372534;28;96985;-85
2023/12/31 03:58:51;;;;;;;;;;;;;;;12.31;91.26;100584.69;10372141;28;96783;-86
2023/12/31 04:03:58;;;;;;;;;;;;;;;12.21;91.32;100581.59;10371308;28;96679;-85
2023/12/31 04:09:04;;;;;;;;;;;;;;;12.19;91.94;100585.22;10370417;28;96989;-85
2023/12/31 04:14:10;;;;;;;;;;;;;;;11.97;92.64;100585.22;10372389;28;96722;-84
2023/12/31 04:19:23;;;;;;;;;;;;;;;11.93;93.23;100598.59;10378537;28;96878;-85
2023/12/31 04:24:29;;;;;;;;;;;;;;;11.95;94.04;100594.97;10336590;28;97340;-85
2023/12/31 04:29:37;;;;;;;;;;;;;;;12.02;93.73;100575.34;10377412;28;97072;-86
2023/12/31 04:34:43;;;;;;;;;;;;;;;12.07;92.96;100573.38;10380172;28;96847;-90
2023/12/31 04:39:51;;;;;;;;;;;;;;;12.11;92.83;100568.84;10378379;28;96688;-88
2023/12/31 04:44:59;;;;;;;;;;;;;;;12.11;93.46;100569.72;10378385;28;96600;-88
2023/12/31 04:50:11;;;;;;;;;;;;;;;12.19;92.31;100562.34;10377674;28;97194;-88
2023/12/31 04:55:17;;;;;;;;;;;;;;;12.31;92.28;100560.94;10377543;28;96733;-88
2023/12/31 05:00:22;;;;;;;;;;;;;;;12.31;92.06;100560.94;10375955;28;96723;-88
2023/12/31 05:05:35;;;;;;;;;;;;;;;12.38;91.92;100563.28;10377035;28;96755;-88
2023/12/31 05:10:39;;;;;;;;;;;;;;;12.35;91.71;100557.28;10376905;28;96781;-88
2023/12/31 05:15:45;;;;;;;;;;;;;;;12.36;91.25;100559.84;10376466;28;96880;-87
2023/12/31 05:20:53;;;;;;;;;;;;;;;12.36;91.21;100572.16;10364960;28;97290;-87
2023/12/31 05:26:00;;;;;;;;;;;;;;;12.28;91.24;100569.88;10334801;28;96782;-87
2023/12/31 05:31:04;;;;;;;;;;;;;;;12.23;90.59;100576.25;10349834;28;96724;-87
2023/12/31 05:36:15;;;;;;;;;;;;;;;12.17;90.93;100571.22;10376943;28;96804;-86
2023/12/31 05:41:19;;;;;;;;;;;;;;;12.16;90.75;100573.03;10375878;28;96731;-87
2023/12/31 05:46:27;;;;;;;;;;;;;;;12.29;91.17;100595.31;10376079;28;96676;-86
2023/12/31 05:51:34;;;;;;;;;;;;;;;12.28;91.07;100592.75;10374898;28;97075;-86
2023/12/31 05:56:42;;;;;;;;;;;;;;;12.25;91.19;100606.09;10375808;28;97028;-87
2023/12/31 06:01:50;;;;;;;;;;;;;;;12.21;90.88;100613.25;10375171;28;96625;-87
2023/12/31 06:06:57;;;;;;;;;;;;;;;12.28;90.38;100620.00;10375175;28;96751;-87
2023/12/31 06:12:06;;;;;;;;;;;;;;;12.34;90.26;100617.09;10375466;28;97155;-86
2023/12/31 06:17:13;;;;;;;;;;;;;;;12.28;90.08;100627.06;10375003;28;96828;-86
2023/12/31 06:22:20;;;;;;;;;;;;;;;12.28;90.37;100640.25;10351675;28;96658;-86
2023/12/31 06:27:25;;;;;;;;;;;;;;;12.28;90.02;100640.25;10364722;28;96815;-85
2023/12/31 06:32:30;;;;;;;;;;;;;;;12.23;90.04;100650.13;10374883;28;98410;-85
2023/12/31 06:37:41;;;;;;;;;;;;;;;12.25;89.99;100643.03;10373528;28;97085;-86
2023/12/31 06:42:46;;;;;;;;;;;;;;;12.27;89.94;100652.56;10373184;28;96771;-85
2023/12/31 06:47:59;;;;;;;;;;;;;;;12.19;90.25;100651.16;10373765;28;96700;-85
2023/12/31 06:53:09;;;;;;;;;;;;;;;12.09;90.34;100660.38;10374359;28;96736;-85
2023/12/31 06:58:16;;;;;;;;;;;;;;;11.96;90.29;100667.06;10372815;28;96741;-84
2023/12/31 07:03:20;;;;;;;;;;;;;;;11.87;90.45;100676.19;10373846;28;96666;-84
2023/12/31 07:08:32;;;;;;;;;;;;;;;11.81;90.81;100686.06;10373380;28;96939;-84
2023/12/31 07:13:38;;;;;;;;;;;;;;;11.70;90.96;100675.09;10373172;28;97365;-85
2023/12/31 07:18:44;;;;;;;;;;;;;;;11.65;91.42;100679.69;10373555;28;96744;-84
2023/12/31 07:23:51;;;;;;;;;;;;;;;11.61;91.36;100678.06;10336717;28;96828;-84
2023/12/31 07:28:57;;;;;;;;;;;;;;;11.54;91.45;100685.34;10330931;28;96642;-84
2023/12/31 07:34:15;;;;;;;;;;;;;;;11.45;92.17;100688.31;10351862;28;97337;-84
2023/12/31 07:39:22;;;;;;;;;;;;;;;11.46;92.05;100690.00;10372496;28;97479;-84
2023/12/31 07:44:28;;;;;;;;;;;;;;;11.49;92.11;100697.84;10372082;28;96833;-84
2023/12/31 07:49:34;;;;;;;;;;;;;;;11.55;91.66;100697.59;10371850;28;97292;-84
2023/12/31 08:00:14;;;;;;;;;;;;;;;11.40;92.09;100711.31;10169310;25;98277;-84
2023/12/31 08:05:32;;;;;;;;;;;;;;;11.29;92.06;100716.97;10412936;28;96714;-84
2023/12/31 08:16:19;;;;;;;;;;;;;;;11.33;92.27;100738.81;10406998;28;96902;-84
2023/12/31 08:21:53;;;;;;;;;;;;;;;11.39;92.62;100744.72;10412419;28;97298;-84
2023/12/31 08:27:01;;;;;;;;;;;;;;;11.48;92.13;100746.16;10411255;28;96631;-84
2023/12/31 08:37:44;;;;;;;;;;;;;;;11.32;91.87;100751.09;10412462;28;97575;-84
2023/12/31 08:42:57;;;;;;;;;;;;;;;11.36;92.01;100755.38;10411731;28;96752;-85
2023/12/31 08:48:30;;;;;;;;;;;;;;;11.42;92.22;100771.88;10412002;28;96816;-84
2023/12/31 08:53:49;;;;;;;;;;;;;;;11.52;91.84;100774.13;10412326;27;96764;-84
2023/12/31 08:59:15;;;;;;;;;;;;;;;11.56;91.78;100782.81;10411355;27;96773;-84
2023/12/31 09:04:28;;;;;;;;;;;;;;;11.57;91.62;100784.50;10419660;28;96609;-85
2023/12/31 09:10:13;;;;;;;;;;;;;;;11.56;91.92;100802.13;10418884;28;96780;-84
2023/12/31 09:15:51;;;;;;;;;;;;;;;11.76;92.08;100810.19;10403828;28;97758;-84
2023/12/31 09:21:03;;;;;;;;;;;;;;;11.85;91.68;100811.63;10417446;28;97231;-84
2023/12/31 09:26:21;;;;;;;;;;;;;;;11.91;91.53;100811.41;10417856;28;96730;-84
2023/12/31 09:31:51;;;;;;;;;;;;;;;11.93;91.16;100820.97;10418021;28;96754;-84
2023/12/31 09:37:02;;;;;;;;;;;;;;;12.02;91.08;100820.66;10417871;28;96722;-84
2023/12/31 09:42:30;;;;;;;;;;;;;;;12.08;90.86;100820.41;10417751;28;96605;-84
2023/12/31 09:47:43;;;;;;;;;;;;;;;12.08;90.63;100832.75;10415899;28;97991;-84
2023/12/31 09:52:56;;;;;;;;;;;;;;;12.28;90.48;100831.09;10375199;28;96836;-84
2023/12/31 09:58:14;;;;;;;;;;;;;;;12.45;90.42;100830.47;10375782;28;96718;-84
2023/12/31 10:03:23;;;;;;;;;;;;;;;12.42;90.11;100844.66;10375344;28;96858;-84
2023/12/31 10:14:05;;;;;;;;;;;;;;;12.60;89.66;100851.00;10412756;27;96708;-84
2023/12/31 10:19:12;;;;;;;;;;;;;;;12.78;89.26;100863.53;10416908;28;96697;-84
2023/12/31 10:24:26;;;;;;;;;;;;;;;12.85;88.62;100875.56;10416154;28;97035;-84
2023/12/31 10:29:30;;;;;;;;;;;;;;;12.94;88.46;100877.84;10416600;28;96555;-84
2023/12/31 10:34:35;;;;;;;;;;;;;;;13.02;88.22;100883.69;10416120;28;97023;-84
2023/12/31 10:39:48;;;;;;;;;;;;;;;13.06;87.43;100885.28;10415571;28;96934;-84
2023/12/31 10:44:56;;;;;;;;;;;;;;;13.04;86.81;100881.84;10399475;28;97234;-84
2023/12/31 10:50:04;;;;;;;;;;;;;;;13.15;86.98;100887.59;10404435;28;96726;-85
2023/12/31 10:55:17;;;;;;;;;;;;;;;13.24;86.75;100889.81;10373547;28;96660;-84
2023/12/31 11:00:25;;;;;;;;;;;;;;;13.30;86.22;100883.44;10410948;28;97351;-85
2023/12/31 11:05:30;;;;;;;;;;;;;;;13.46;84.88;100882.78;10411267;28;96797;-85
2023/12/31 11:10:37;;;;;;;;;;;;;;;13.47;84.01;100879.19;10412053;28;97245;-85
2023/12/31 11:15:43;;;;;;;;;;;;;;;13.64;84.41;100881.97;10411900;28;96621;-84
2023/12/31 11:21:10;;;;;;;;;;;;;;;13.73;83.13;100867.50;10411836;28;96788;-85
2023/12/31 11:26:20;;;;;;;;;;;;;;;13.83;83.03;100868.00;10407208;28;97378;-84
2023/12/31 11:31:25;;;;;;;;;;;;;;;13.96;82.05;100859.44;10413935;28;96644;-85
2023/12/31 11:36:31;;;;;;;;;;;;;;;13.98;82.31;100844.38;10414327;28;96649;-84
2023/12/31 11:41:45;;;;;;;;;;;;;;;14.22;81.77;100840.66;10415042;28;96849;-84
2023/12/31 11:46:49;;;;;;;;;;;;;;;14.05;81.20;100827.31;10408604;28;96792;-84
2023/12/31 11:51:54;;;;;;;;;;;;;;;14.07;80.63;100827.25;10413537;28;96641;-83
2023/12/31 11:57:01;;;;;;;;;;;;;;;14.09;80.94;100823.59;10345008;28;1909296;-83
2023/12/31 12:02:08;;;;;;;;;;;;;;;13.88;80.32;100819.25;10416792;28;96805;-83
2023/12/31 12:07:13;;;;;;;;;;;;;;;13.84;81.05;100814.13;10416043;28;97067;-83
2023/12/31 12:12:20;;;;;;;;;;;;;;;13.90;80.10;100808.59;10416202;28;96665;-82
2023/12/31 12:17:28;;;;;;;;;;;;;;;13.81;79.97;100804.56;10416057;28;97654;-82
2023/12/31 12:22:34;;;;;;;;;;;;;;;14.10;79.20;100793.56;10415646;28;96899;-83
2023/12/31 12:27:42;;;;;;;;;;;;;;;14.52;77.62;100801.31;10415706;28;98201;-82
2023/12/31 12:32:47;;;;;;;;;;;;;;;14.76;77.59;100781.63;10416786;28;96885;-82
2023/12/31 12:37:51;;;;;;;;;;;;;;;14.77;75.66;100780.66;10420648;27;96639;-82
2023/12/31 12:43:05;;;;;;;;;;;;;;;14.85;75.65;100772.38;10422943;28;96730;-83
2023/12/31 12:48:10;;;;;;;;;;;;;;;14.70;75.66;100773.94;10403617;28;96997;-83
2023/12/31 12:53:16;;;;;;;;;;;;;;;14.22;73.75;100768.31;10381044;28;96653;-82
2023/12/31 12:58:23;;;;;;;;;;;;;;;14.16;73.00;100768.63;10412066;28;96680;-83
2023/12/31 13:03:27;;;;;;;;;;;;;;;14.07;74.22;100777.84;10422296;28;97098;-82
2023/12/31 13:08:32;;;;;;;;;;;;;;;14.27;70.88;100768.97;10422278;28;97716;-83
2023/12/31 13:13:39;;;;;;;;;;;;;;;14.63;70.86;100759.28;10421981;28;96846;-83
2023/12/31 13:18:43;;;;;;;;;;;;;;;14.87;71.32;100755.44;10421593;28;96980;-82
2023/12/31 13:23:48;;;;;;;;;;;;;;;15.83;69.43;100741.66;10422216;28;96735;-82
2023/12/31 13:28:55;;;;;;;;;;;;;;;17.45;62.57;100728.75;10421026;28;96841;-82
2023/12/31 13:34:02;;;;;;;;;;;;;;;17.21;60.25;100716.94;10421369;28;96807;-83
2023/12/31 13:39:07;;;;;;;;;;;;;;;16.78;62.87;100715.94;10419992;28;96775;-83
2023/12/31 13:44:14;;;;;;;;;;;;;;;16.53;63.46;100709.47;10416558;28;96964;-84
2023/12/31 13:49:19;;;;;;;;;;;;;;;16.16;66.58;100710.63;10413955;28;96896;-83
2023/12/31 13:54:23;;;;;;;;;;;;;;;15.90;66.53;100704.09;10417247;28;96824;-78
2023/12/31 13:59:27;;;;;;;;;;;;;;;15.45;64.29;100695.06;10414203;28;97298;-78
2023/12/31 14:04:30;;;;;;;;;;;;;;;15.35;66.73;100707.97;10413079;28;96838;-82
2023/12/31 14:09:36;;;;;;;;;;;;;;;15.32;66.29;100701.97;10413762;28;98838;-84
2023/12/31 14:14:42;;;;;;;;;;;;;;;14.94;66.62;100698.56;10417574;28;97134;-86
2023/12/31 14:19:46;;;;;;;;;;;;;;;14.87;65.34;100693.66;10412914;28;98383;-87
2023/12/31 14:24:50;;;;;;;;;;;;;;;14.97;63.91;100677.22;10417710;28;97988;-85
2023/12/31 14:29:57;;;;;;;;;;;;;;;15.22;63.74;100679.44;10414238;28;98514;-85
2023/12/31 14:35:00;;;;;;;;;;;;;;;15.00;65.52;100682.34;10414413;28;97690;-88
2023/12/31 14:40:05;;;;;;;;;;;;;;;14.99;66.24;100685.91;10415369;28;96914;-88
2023/12/31 14:45:11;;;;;;;;;;;;;;;14.83;64.38;100685.84;10414339;28;96883;-84
2023/12/31 14:50:15;;;;;;;;;;;;;;;15.58;65.04;100677.56;10414213;28;98898;-78
2023/12/31 14:55:19;;;;;;;;;;;;;;;15.96;60.20;100675.50;10415215;28;97234;-79
2023/12/31 15:00:24;;;;;;;;;;;;;;;15.73;59.88;100672.31;10410575;28;97228;-79
2023/12/31 15:05:27;;;;;;;;;;;;;;;15.41;59.81;100678.44;10415084;28;96912;-78
2023/12/31 15:10:30;;;;;;;;;;;;;;;15.76;58.68;100684.53;10413363;28;97294;-79
2023/12/31 15:15:35;;;;;;;;;;;;;;;16.15;58.56;100698.28;10411230;28;98113;-79
2023/12/31 15:20:41;;;;;;;;;;;;;;;16.79;59.00;100703.50;10413739;28;97128;-79
2023/12/31 15:25:44;;;;;;;;;;;;;;;17.39;54.40;100683.91;10407226;28;97187;-79
2023/12/31 15:30:49;;;;;;;;;;;;;;;17.35;56.58;100701.00;10413034;28;96998;-79
2023/12/31 15:35:52;;;;;;;;;;;;;;;16.85;57.28;100700.47;10411589;28;96817;-78
2023/12/31 15:40:55;;;;;;;;;;;;;;;16.32;58.82;100700.88;10415353;28;98915;-79
2023/12/31 15:45:59;;;;;;;;;;;;;;;16.44;60.72;100699.34;10412386;28;97145;-78
2023/12/31 15:51:03;;;;;;;;;;;;;;;16.51;60.20;100692.75;10413770;28;98351;-79
2023/12/31 15:56:06;;;;;;;;;;;;;;;16.29;59.61;100695.72;10412831;28;98861;-79
2023/12/31 16:01:11;;;;;;;;;;;;;;;15.98;60.40;100697.50;10410230;28;97609;-79
2023/12/31 16:06:14;;;;;;;;;;;;;;;15.54;61.01;100698.09;10414034;28;96811;-81
2023/12/31 16:11:17;;;;;;;;;;;;;;;15.25;61.56;100708.47;10410750;28;96835;-78
2023/12/31 16:16:21;;;;;;;;;;;;;;;14.98;61.48;100707.22;10414525;28;97184;-81
2023/12/31 16:21:24;;;;;;;;;;;;;;;14.80;62.54;100708.97;10412577;28;98616;-78
2023/12/31 16:26:27;;;;;;;;;;;;;;;14.60;62.97;100715.28;10410871;28;96817;-78
2023/12/31 16:31:32;;;;;;;;;;;;;;;14.42;63.76;100717.97;10410218;28;97012;-79
2023/12/31 16:36:35;;;;;;;;;;;;;;;14.14;64.73;100744.84;10412391;28;97574;-79
2023/12/31 16:41:38;;;;;;;;;;;;;;;13.88;65.12;100753.13;10411826;28;97537;-78
2023/12/31 16:46:43;;;;;;;;;;;;;;;13.73;65.39;100740.56;10410186;28;96842;-78
2023/12/31 16:51:46;;;;;;;;;;;;;;;13.54;66.21;100752.88;10410402;28;98962;-78
2023/12/31 16:56:49;;;;;;;;;;;;;;;13.47;66.70;100759.34;10409630;28;98509;-79
2023/12/31 17:01:53;;;;;;;;;;;;;;;13.37;66.21;100758.91;10406617;28;98607;-79
2023/12/31 17:06:56;;;;;;;;;;;;;;;13.33;67.14;100753.78;10409040;28;96913;-79
2023/12/31 17:12:00;;;;;;;;;;;;;;;13.28;67.55;100755.78;10406916;28;96951;-78
2023/12/31 17:17:05;;;;;;;;;;;;;;;13.19;68.90;100756.19;10402237;28;98263;-79
2023/12/31 17:22:08;;;;;;;;;;;;;;;13.07;69.44;100754.91;10406647;27;98260;-78
2023/12/31 17:27:11;;;;;;;;;;;;;;;13.07;69.61;100773.41;10415970;28;98313;-78
2023/12/31 17:32:15;;;;;;;;;;;;;;;12.98;69.90;100783.50;10415080;28;98167;-78
2023/12/31 17:37:18;;;;;;;;;;;;;;;12.94;70.36;100780.13;10417881;28;96836;-78
2023/12/31 17:42:21;;;;;;;;;;;;;;;12.78;71.11;100757.88;10412481;28;96758;-78
2023/12/31 17:47:26;;;;;;;;;;;;;;;12.75;71.49;100767.72;10414529;28;97056;-79
2023/12/31 17:52:29;;;;;;;;;;;;;;;12.67;72.02;100785.66;10414252;28;98280;-79
2023/12/31 17:57:32;;;;;;;;;;;;;;;12.64;72.61;100791.00;10412774;28;96864;-79
2023/12/31 18:02:37;;;;;;;;;;;;;;;12.67;72.84;100789.13;10414110;28;98956;-79
2023/12/31 18:07:40;;;;;;;;;;;;;;;12.71;72.96;100790.75;10416170;28;96889;-78
2023/12/31 18:12:44;;;;;;;;;;;;;;;12.62;72.87;100798.97;10417062;28;96758;-80
2023/12/31 18:17:48;;;;;;;;;;;;;;;12.56;73.17;100809.78;10416657;28;97410;-79
2023/12/31 18:22:51;;;;;;;;;;;;;;;12.59;73.49;100814.94;10415977;28;97921;-84
2023/12/31 18:27:55;;;;;;;;;;;;;;;12.48;73.47;100822.41;10417789;28;98379;-83
2023/12/31 18:32:59;;;;;;;;;;;;;;;12.36;74.00;100826.38;10412987;28;96725;-79
2023/12/31 18:38:02;;;;;;;;;;;;;;;12.18;74.88;100837.66;10414316;28;98925;-79
2023/12/31 18:43:06;;;;;;;;;;;;;;;12.22;75.29;100841.88;10415065;28;96854;-79
2023/12/31 18:48:10;;;;;;;;;;;;;;;12.34;74.90;100835.28;10416214;28;96920;-79
2023/12/31 18:53:14;;;;;;;;;;;;;;;12.26;75.24;100861.09;10414837;28;96790;-79
2023/12/31 18:58:17;;;;;;;;;;;;;;;12.15;75.17;100860.63;10414605;28;97554;-79
2023/12/31 19:03:22;;;;;;;;;;;;;;;12.13;75.41;100851.91;10412296;28;99308;-79
2023/12/31 19:08:25;;;;;;;;;;;;;;;12.14;75.49;100849.22;10414477;28;96799;-79
2023/12/31 19:13:28;;;;;;;;;;;;;;;12.09;75.89;100843.25;10415429;28;97252;-79
2023/12/31 19:18:32;;;;;;;;;;;;;;;12.13;76.34;100855.38;10417055;28;96788;-79
2023/12/31 19:23:35;;;;;;;;;;;;;;;12.19;76.29;100847.28;10416045;28;99089;-79
2023/12/31 19:28:38;;;;;;;;;;;;;;;12.07;76.33;100855.63;10414016;28;96886;-79
2023/12/31 19:33:43;;;;;;;;;;;;;;;12.03;76.65;100843.47;10412950;28;96887;-79
2023/12/31 19:38:47;;;;;;;;;;;;;;;12.00;77.12;100834.78;10415598;28;98838;-79
2023/12/31 19:43:50;;;;;;;;;;;;;;;11.77;76.73;100863.78;10413818;28;96847;-79
2023/12/31 19:49:15;;;;;;;;;;;;;;;11.69;76.88;100863.16;10411150;28;97722;-79
2023/12/31 19:54:18;;;;;;;;;;;;;;;11.60;77.60;100866.13;10412876;28;96733;-79
2023/12/31 19:59:21;;;;;;;;;;;;;;;11.57;77.49;100882.91;10414183;28;96997;-79
2023/12/31 20:04:26;;;;;;;;;;;;;;;11.48;78.35;100877.06;10415087;28;98959;-79
2023/12/31 20:09:31;;;;;;;;;;;;;;;11.42;78.22;100874.66;10415452;28;97141;-79
2023/12/31 20:14:34;;;;;;;;;;;;;;;11.26;78.86;100876.91;10405446;28;96765;-79
2023/12/31 20:19:38;;;;;;;;;;;;;;;11.23;78.55;100882.28;10413562;28;97008;-80
2023/12/31 20:29:48;;;;;;;;;;;;;;;11.02;78.70;100912.78;10127472;28;98553;-79
2023/12/31 20:34:55;;;;;;;;;;;;;;;11.17;78.98;100908.81;10121991;28;96844;-79
2023/12/31 20:39:58;;;;;;;;;;;;;;;11.22;78.88;100914.81;10128712;28;98293;-79
2023/12/31 20:45:01;;;;;;;;;;;;;;;11.09;78.84;100906.44;10129271;28;96891;-79
2023/12/31 20:50:06;;;;;;;;;;;;;;;11.03;79.50;100913.63;10126594;28;97492;-79
2023/12/31 20:55:09;;;;;;;;;;;;;;;11.00;79.83;100927.75;10125044;28;97821;-77
2023/12/31 21:00:13;;;;;;;;;;;;;;;10.96;79.75;100934.03;10125218;28;97111;-80
2023/12/31 21:05:18;;;;;;;;;;;;;;;10.89;79.46;100953.53;10136994;28;96811;-80
2023/12/31 21:10:21;;;;;;;;;;;;;;;10.99;80.09;100951.50;10136227;28;97476;-79
2023/12/31 21:15:24;;;;;;;;;;;;;;;10.97;80.25;100950.69;10134333;28;96807;-81
2023/12/31 21:20:29;;;;;;;;;;;;;;;10.98;79.88;100941.88;10130907;28;96848;-80
2023/12/31 21:25:35;;;;;;;;;;;;;;;10.90;79.94;100960.56;10133744;28;97020;-80
2023/12/31 21:30:38;;;;;;;;;;;;;;;10.81;80.14;100971.34;10130520;28;98284;-79
2023/12/31 21:35:43;;;;;;;;;;;;;;;10.76;80.01;100967.13;10131910;28;99079;-79
2023/12/31 21:40:46;;;;;;;;;;;;;;;10.71;79.91;100966.38;10133785;28;97840;-79
2023/12/31 21:45:49;;;;;;;;;;;;;;;10.54;80.62;100966.00;10116214;28;97447;-79
2023/12/31 21:50:54;;;;;;;;;;;;;;;10.45;81.51;100966.25;10135113;28;96628;-79
2023/12/31 21:55:57;;;;;;;;;;;;;;;10.61;81.01;100964.94;10132779;28;98513;-85
2023/12/31 22:01:20;;;;;;;;;;;;;;;10.65;81.55;100977.06;10123955;28;96782;-80
2023/12/31 22:06:24;;;;;;;;;;;;;;;10.61;81.16;100988.63;10127674;28;96838;-80
2023/12/31 22:11:27;;;;;;;;;;;;;;;10.65;81.51;100974.44;10135239;28;96905;-80
2023/12/31 22:16:30;;;;;;;;;;;;;;;10.69;81.37;100976.09;10130711;28;96871;-80
2023/12/31 22:21:35;;;;;;;;;;;;;;;10.77;80.93;100966.19;10132401;28;97788;-80
2023/12/31 22:26:38;;;;;;;;;;;;;;;10.65;81.69;100953.38;10138085;28;96925;-80
2023/12/31 22:31:41;;;;;;;;;;;;;;;10.61;81.37;100957.03;10132343;28;97514;-80
2023/12/31 22:36:46;;;;;;;;;;;;;;;10.73;81.84;100959.31;10131916;28;96774;-80
2023/12/31 22:41:49;;;;;;;;;;;;;;;10.43;82.07;100945.25;10135600;28;97810;-79
2023/12/31 22:46:52;;;;;;;;;;;;;;;10.50;82.05;100945.94;10126583;28;98031;-79
2023/12/31 22:51:56;;;;;;;;;;;;;;;10.46;82.46;100950.44;10130940;28;98112;-78
2023/12/31 22:56:59;;;;;;;;;;;;;;;10.42;82.46;100940.88;10129813;28;98120;-79
2023/12/31 23:02:02;;;;;;;;;;;;;;;10.46;82.57;100928.50;10131208;28;96929;-79
2023/12/31 23:07:07;;;;;;;;;;;;;;;10.49;82.81;100942.44;10123883;28;98456;-79
2023/12/31 23:12:10;;;;;;;;;;;;;;;10.51;82.29;100930.09;10132902;28;96841;-82
2023/12/31 23:17:13;;;;;;;;;;;;;;;10.42;82.76;100943.50;10130805;28;96859;-82
2023/12/31 23:22:18;;;;;;;;;;;;;;;10.34;81.83;100948.13;10132383;28;97111;-82
2023/12/31 23:27:21;;;;;;;;;;;;;;;10.40;82.49;100940.09;10129931;28;96780;-82
2023/12/31 23:32:24;;;;;;;;;;;;;;;10.31;82.55;100942.97;10129276;28;97390;-81
2023/12/31 23:37:28;;;;;;;;;;;;;;;10.25;82.01;100946.63;10129601;28;97928;-82
2023/12/31 23:42:32;;;;;;;;;;;;;;;10.18;82.00;100925.78;10129461;28;97692;-82
2023/12/31 23:47:35;;;;;;;;;;;;;;;10.00;82.03;100935.03;10127999;28;97055;-79
2023/12/31 23:52:39;;;;;;;;;;;;;;;10.11;82.26;100934.72;10127886;28;96960;-83
2023/12/31 23:57:42;;;;;;;;;;;;;;;9.98;82.56;100928.09;10127958;28;97511;-80
